KIJX/IJX METAR and TAF weather

Enter ICAO airport designator
Station Type Date Time Source
KIJX METAR 2020/04/05 16:35 UTC NOAA

KIJX 051635Z AUTO 05009KT 10SM OVC070 11/00 A3018 RMK AO2 T01121001


Station Type Date Time Source
KIJX Decoded METAR 2020/04/05 16:35 UTC NOAA

Jacksonville, Jacksonville Municipal Airport, IL, United States (KIJX) 39-46-27N 090-14-19W
Apr 05, 2020 - 12:35 PM EDT / 2020.04.05 1635 UTC
Wind: from the NE (050 degrees) at 10 MPH (9 KT):0
Visibility: 10 mile(s):0
Sky conditions: overcast
Temperature: 52.2 F (11.2 C)
Dew Point: 31.8 F (-0.1 C)
Relative Humidity: 45%
Pressure (altimeter): 30.18 in. Hg (1022 hPa)
ob: KIJX 051635Z AUTO 05009KT 10SM OVC070 11/00 A3018 RMK AO2 T01121001
cycle: 16

Station Type Date Time Source
KIJX TAF UTC NOAA

Error!

Example: see airport list